Cincinnati Municipal Airport Lunken Field Cincinnati US
ICAO: KLUK
IATA: LUK
Category: Medium
Scheduled Services: No

Elevation: 483 ft
TransAlt. 18000 ft.

Airport Communications:
APP/DEP:121
ATIS:120.25
CLNC DEL:121.9
CTAF:118.7
GND:121.9
DAYTON RDO:122.4
LUNKEN TWR:118.7
UNICOM:122.95

KLUK Zoom In..

Runways:

(A) RW 03L length 3802 ft width 100 ft
---- / hdg 27

(B) RW 03R length 6101 ft width 150 ft
---- / hdg 25

(C) RW 07 length 5128 ft width 100 ft
---- / hdg 66

(D) RW 21L length 6101 ft width 150 ft
ILS 110.90 / hdg 205

(E) RW 21R length 3802 ft width 100 ft
---- / hdg 207

(F) RW 25 length 5128 ft width 100 ft
---- / hdg 246

Location; KLUK
Day. 21 / Time. 05.53 Zulu
* Altimeter: 29.80
* Temperature: 19° c. 66.2°f.
* Wind from: 200° Speed 04 kn.
Dewpoint: 18° c.
Visibility: 10 Statute Miles.
Clouds: Overcast 1000 ft.
Conditions: Light Rain.

KLUK 210553Z AUTO 20004KT 10SM -RA OVC010 19/18 A2980 RMK AO2 RAB30 SLP087 P0000 60029 T01890183 10189 20183 58015


Wind From 200°
Speed 04 kn.

 
 
jpsmedia.com for Web Design worldairports.se 2018   terms of use